Time;durP1;ratioP1;P1;durP2;ratioP2;P2;SDS_P1;SDS_P2;PMS_P1;PMS_P2;Temp;Humidity;BMP_temperature;BMP_pressure;BME280_temperature;BME280_humidity;BME280_pressure;Samples;Min_cycle;Max_cycle;Signal;HPM_P1;HPM_P2
2022/03/21 00:02:58;;;;;;;15.73;10.23;;;;;;;;;;8152048;28;20631;-60
2022/03/21 00:06:58;;;;;;;18.80;11.18;;;;;;;;;;8147548;28;20019;-60
2022/03/21 00:10:59;;;;;;;15.82;11.30;;;;;;;;;;8146456;28;20031;-60
2022/03/21 00:14:59;;;;;;;16.83;11.07;;;;;;;;;;8151722;29;20700;-60
2022/03/21 00:19:02;;;;;;;17.98;11.63;;;;;;;;;;8146445;28;20279;-60
2022/03/21 00:23:02;;;;;;;15.82;10.43;;;;;;;;;;8149502;28;20034;-61
2022/03/21 00:27:02;;;;;;;15.45;10.18;;;;;;;;;;8158063;28;20784;-60
2022/03/21 00:31:03;;;;;;;16.13;10.57;;;;;;;;;;8149703;28;20042;-60
2022/03/21 00:35:04;;;;;;;16.47;10.63;;;;;;;;;;8148419;28;20030;-60
2022/03/21 00:39:05;;;;;;;13.98;10.02;;;;;;;;;;8150152;28;20353;-60
2022/03/21 00:43:07;;;;;;;16.83;10.60;;;;;;;;;;8150822;28;20028;-60
2022/03/21 00:47:07;;;;;;;17.77;11.20;;;;;;;;;;8153087;28;20031;-60
2022/03/21 00:51:07;;;;;;;20.35;10.10;;;;;;;;;;8146740;28;20437;-60
2022/03/21 00:55:09;;;;;;;18.13;11.27;;;;;;;;;;8149982;28;20027;-60
2022/03/21 00:59:10;;;;;;;15.73;10.80;;;;;;;;;;8152866;29;20434;-60
2022/03/21 01:03:10;;;;;;;18.13;11.65;;;;;;;;;;8157414;28;20083;-60
2022/03/21 01:07:10;;;;;;;16.48;11.30;;;;;;;;;;8144690;29;20082;-60
2022/03/21 01:11:13;;;;;;;17.55;10.95;;;;;;;;;;8145702;28;20517;-60
2022/03/21 01:15:15;;;;;;;16.35;10.23;;;;;;;;;;8150125;28;20027;-60
2022/03/21 01:19:15;;;;;;;18.33;10.95;;;;;;;;;;8148181;29;20536;-60
2022/03/21 01:23:15;;;;;;;14.90;10.43;;;;;;;;;;8146843;28;20055;-60
2022/03/21 01:27:16;;;;;;;17.60;10.40;;;;;;;;;;8148838;29;20031;-60
2022/03/21 01:31:16;;;;;;;14.25;9.93;;;;;;;;;;8144580;28;20450;-60
2022/03/21 01:35:17;;;;;;;15.13;9.80;;;;;;;;;;8148286;28;20062;-60
2022/03/21 01:39:17;;;;;;;15.52;10.23;;;;;;;;;;8145788;29;20030;-61
2022/03/21 01:43:17;;;;;;;16.73;9.70;;;;;;;;;;8148572;29;20046;-60
2022/03/21 01:47:18;;;;;;;14.40;9.50;;;;;;;;;;8146048;28;20115;-60
2022/03/21 01:51:18;;;;;;;16.33;9.40;;;;;;;;;;8146784;28;20023;-60
2022/03/21 01:59:37;;;;;;;16.45;9.82;;;;;;;;;;8144317;29;20131;-60
2022/03/21 02:03:37;;;;;;;12.18;8.85;;;;;;;;;;8145241;28;20031;-60
2022/03/21 02:07:37;;;;;;;16.77;9.55;;;;;;;;;;8146993;29;20042;-60
2022/03/21 02:11:38;;;;;;;16.63;10.57;;;;;;;;;;8149943;29;20035;-60
2022/03/21 02:15:38;;;;;;;21.75;13.20;;;;;;;;;;8147638;28;20087;-60
2022/03/21 02:19:39;;;;;;;26.95;14.38;;;;;;;;;;8146890;28;20094;-60
2022/03/21 02:23:46;;;;;;;25.33;15.82;;;;;;;;;;8145812;29;20492;-60
2022/03/21 02:27:46;;;;;;;24.35;13.73;;;;;;;;;;8149325;29;20410;-60
2022/03/21 02:31:47;;;;;;;20.70;13.32;;;;;;;;;;8145670;28;20434;-60
2022/03/21 02:35:49;;;;;;;17.75;11.27;;;;;;;;;;8146017;29;20577;-60
2022/03/21 02:39:50;;;;;;;15.15;10.00;;;;;;;;;;8145247;29;20118;-60
2022/03/21 02:43:54;;;;;;;15.23;10.38;;;;;;;;;;8146613;28;20055;-60
2022/03/21 02:47:54;;;;;;;16.30;10.75;;;;;;;;;;8146864;28;20039;-60
2022/03/21 02:51:55;;;;;;;17.23;10.60;;;;;;;;;;8144793;29;20020;-60
2022/03/21 02:55:55;;;;;;;15.60;10.77;;;;;;;;;;8144854;29;20602;-61
2022/03/21 02:59:56;;;;;;;21.88;12.70;;;;;;;;;;8149927;28;20028;-60
2022/03/21 03:03:56;;;;;;;21.02;13.13;;;;;;;;;;8153245;28;20048;-60
2022/03/21 03:07:56;;;;;;;20.00;12.05;;;;;;;;;;8151132;28;20111;-60
2022/03/21 03:11:56;;;;;;;15.77;10.65;;;;;;;;;;8151687;28;20051;-60
2022/03/21 03:15:56;;;;;;;14.68;10.15;;;;;;;;;;8152594;28;20040;-61
2022/03/21 03:19:57;;;;;;;15.73;9.43;;;;;;;;;;8150778;29;20606;-60
2022/03/21 03:23:59;;;;;;;15.63;9.15;;;;;;;;;;8151461;28;20579;-60
2022/03/21 03:27:59;;;;;;;13.05;8.85;;;;;;;;;;8152089;29;20031;-61
2022/03/21 03:32:00;;;;;;;14.85;9.43;;;;;;;;;;8147853;28;20035;-60
2022/03/21 03:36:00;;;;;;;12.75;8.45;;;;;;;;;;8151556;28;20036;-60
2022/03/21 03:40:00;;;;;;;15.20;9.25;;;;;;;;;;8147758;28;20456;-60
2022/03/21 03:44:01;;;;;;;12.87;9.20;;;;;;;;;;8151462;29;20102;-60
2022/03/21 03:48:02;;;;;;;18.13;9.47;;;;;;;;;;8150866;28;21117;-60
2022/03/21 03:52:02;;;;;;;12.07;8.77;;;;;;;;;;8149328;29;20283;-60
2022/03/21 03:56:02;;;;;;;19.30;9.10;;;;;;;;;;8148980;28;20034;-60
2022/03/21 04:00:03;;;;;;;14.32;9.10;;;;;;;;;;8152063;28;20717;-60
2022/03/21 04:04:03;;;;;;;15.45;9.15;;;;;;;;;;8148182;29;20030;-60
2022/03/21 04:08:04;;;;;;;14.00;8.82;;;;;;;;;;8151755;29;20035;-60
2022/03/21 04:12:04;;;;;;;16.90;9.83;;;;;;;;;;8147341;28;20035;-60
2022/03/21 04:16:05;;;;;;;13.85;8.30;;;;;;;;;;8149842;28;20355;-60
2022/03/21 04:20:06;;;;;;;14.93;9.50;;;;;;;;;;8149758;28;20122;-60
2022/03/21 04:24:07;;;;;;;14.00;9.73;;;;;;;;;;8147939;29;20027;-60
2022/03/21 04:28:10;;;;;;;13.43;9.70;;;;;;;;;;8149774;28;20639;-61
2022/03/21 04:32:11;;;;;;;16.63;9.30;;;;;;;;;;8144734;28;20765;-60
2022/03/21 04:36:13;;;;;;;15.30;8.87;;;;;;;;;;8146149;29;20413;-61
2022/03/21 04:40:13;;;;;;;12.07;9.15;;;;;;;;;;8145364;28;20389;-60
2022/03/21 04:44:13;;;;;;;14.10;9.68;;;;;;;;;;8145022;28;20532;-61
2022/03/21 04:48:14;;;;;;;18.08;11.02;;;;;;;;;;8145999;28;20827;-60
2022/03/21 04:52:14;;;;;;;22.27;13.52;;;;;;;;;;8146690;29;20019;-60
2022/03/21 04:56:14;;;;;;;24.23;12.50;;;;;;;;;;8144259;28;20023;-60
2022/03/21 05:00:15;;;;;;;22.30;11.57;;;;;;;;;;8145047;28;20768;-60
2022/03/21 05:04:15;;;;;;;23.08;11.82;;;;;;;;;;8146240;29;20024;-60
2022/03/21 05:08:16;;;;;;;26.83;14.75;;;;;;;;;;8144316;29;20110;-60
2022/03/21 05:12:16;;;;;;;26.88;13.85;;;;;;;;;;8143039;28;20023;-60
2022/03/21 05:16:16;;;;;;;26.52;16.02;;;;;;;;;;8148797;28;20135;-60
2022/03/21 05:20:16;;;;;;;22.60;13.70;;;;;;;;;;8139780;28;21145;-60
2022/03/21 05:37:14;;;;;;;22.10;11.82;;;;;;;;;;8143746;29;20042;-60
2022/03/21 05:41:14;;;;;;;20.85;11.65;;;;;;;;;;8143580;28;20023;-60
2022/03/21 05:45:19;;;;;;;16.90;10.00;;;;;;;;;;8143936;28;20628;-60
2022/03/21 05:49:20;;;;;;;15.75;10.07;;;;;;;;;;8141608;28;20020;-60
2022/03/21 05:53:20;;;;;;;18.33;10.60;;;;;;;;;;8144850;29;20049;-60
2022/03/21 05:57:20;;;;;;;19.05;11.05;;;;;;;;;;8146600;28;20035;-60
2022/03/21 06:01:24;;;;;;;19.17;11.48;;;;;;;;;;8145905;28;20535;-62
2022/03/21 06:05:25;;;;;;;16.15;10.05;;;;;;;;;;8147240;29;20168;-60
2022/03/21 06:09:25;;;;;;;15.18;9.88;;;;;;;;;;8146581;28;20028;-60
2022/03/21 06:13:25;;;;;;;15.45;9.98;;;;;;;;;;8145422;28;20161;-60
2022/03/21 06:17:26;;;;;;;14.20;9.45;;;;;;;;;;8147312;28;20074;-63
2022/03/21 06:21:28;;;;;;;15.00;10.15;;;;;;;;;;8145904;29;20520;-60
2022/03/21 06:25:28;;;;;;;19.80;11.20;;;;;;;;;;8145129;29;20626;-60
2022/03/21 06:29:28;;;;;;;18.40;11.43;;;;;;;;;;8144697;28;20359;-60
2022/03/21 06:33:29;;;;;;;19.92;10.68;;;;;;;;;;8146300;28;20046;-61
2022/03/21 06:37:30;;;;;;;18.85;11.50;;;;;;;;;;8153173;29;20289;-62
2022/03/21 06:41:31;;;;;;;21.75;14.57;;;;;;;;;;8152993;28;20388;-61
2022/03/21 06:45:32;;;;;;;22.00;13.32;;;;;;;;;;8150289;28;20035;-61
2022/03/21 06:49:32;;;;;;;17.45;11.05;;;;;;;;;;8140411;28;20036;-61
2022/03/21 06:53:32;;;;;;;64.43;25.67;;;;;;;;;;8146256;28;20087;-61
2022/03/21 06:57:32;;;;;;;26.33;14.95;;;;;;;;;;8144580;28;20121;-61
2022/03/21 07:01:35;;;;;;;16.55;10.65;;;;;;;;;;8143900;28;20742;-61
2022/03/21 07:05:36;;;;;;;14.77;10.13;;;;;;;;;;8147111;28;20465;-61
2022/03/21 07:09:36;;;;;;;21.10;12.00;;;;;;;;;;8144152;28;20133;-61
2022/03/21 07:13:36;;;;;;;16.95;10.90;;;;;;;;;;8146348;29;20130;-61
2022/03/21 07:17:36;;;;;;;18.00;11.38;;;;;;;;;;8145018;28;20047;-61
2022/03/21 07:21:37;;;;;;;16.92;10.27;;;;;;;;;;8143415;29;20583;-61
2022/03/21 07:25:37;;;;;;;16.73;11.35;;;;;;;;;;8147421;29;20127;-61
2022/03/21 07:29:37;;;;;;;14.57;10.80;;;;;;;;;;8145655;29;20511;-61
2022/03/21 07:33:38;;;;;;;20.42;11.43;;;;;;;;;;8145637;28;20064;-61
2022/03/21 07:37:57;;;;;;;15.45;11.27;;;;;;;;;;8144582;29;20043;-61
2022/03/21 07:42:01;;;;;;;17.38;10.60;;;;;;;;;;8143486;29;20087;-61
2022/03/21 07:50:23;;;;;;;16.25;11.60;;;;;;;;;;8144343;28;20706;-61
2022/03/21 07:54:24;;;;;;;17.90;11.73;;;;;;;;;;8144029;28;20070;-62
2022/03/21 07:58:24;;;;;;;16.90;11.73;;;;;;;;;;8146824;29;20027;-61
2022/03/21 08:02:27;;;;;;;15.02;12.15;;;;;;;;;;8143859;28;20376;-61
2022/03/21 08:06:27;;;;;;;18.27;11.20;;;;;;;;;;8142934;29;20085;-61
2022/03/21 08:10:29;;;;;;;14.50;11.60;;;;;;;;;;8141424;28;20051;-62
2022/03/21 08:14:29;;;;;;;16.58;11.65;;;;;;;;;;8145624;28;20050;-61
2022/03/21 08:18:29;;;;;;;16.87;11.03;;;;;;;;;;8144935;28;20039;-62
2022/03/21 08:22:30;;;;;;;21.17;13.35;;;;;;;;;;8144598;28;20656;-62
2022/03/21 08:26:30;;;;;;;19.17;13.98;;;;;;;;;;8139552;28;20998;-62
2022/03/21 08:30:32;;;;;;;20.52;13.43;;;;;;;;;;8142009;28;20038;-62
2022/03/21 08:34:33;;;;;;;13.70;11.07;;;;;;;;;;8143904;28;20524;-62
2022/03/21 08:38:33;;;;;;;30.10;18.10;;;;;;;;;;8141457;29;20508;-61
2022/03/21 08:42:33;;;;;;;17.83;11.52;;;;;;;;;;8139909;29;20416;-61
2022/03/21 08:46:34;;;;;;;14.40;11.17;;;;;;;;;;8141240;28;20320;-61
2022/03/21 08:50:34;;;;;;;16.05;12.02;;;;;;;;;;8140776;28;20091;-62
2022/03/21 08:54:36;;;;;;;13.55;10.88;;;;;;;;;;8140601;28;20031;-62
2022/03/21 08:58:36;;;;;;;15.48;10.80;;;;;;;;;;8141784;28;20023;-61
2022/03/21 09:02:36;;;;;;;13.17;10.27;;;;;;;;;;8141521;28;20077;-62
2022/03/21 09:06:37;;;;;;;14.88;10.77;;;;;;;;;;8141116;29;20863;-61
2022/03/21 09:10:37;;;;;;;12.85;9.88;;;;;;;;;;8138057;28;20037;-62
2022/03/21 09:14:38;;;;;;;12.50;10.30;;;;;;;;;;8139252;29;20097;-62
2022/03/21 09:18:39;;;;;;;15.85;10.25;;;;;;;;;;8141973;28;20343;-61
2022/03/21 09:22:39;;;;;;;13.98;10.73;;;;;;;;;;8141171;28;20034;-61
2022/03/21 09:26:39;;;;;;;16.33;10.90;;;;;;;;;;8143120;28;20532;-61
2022/03/21 09:30:40;;;;;;;16.70;10.80;;;;;;;;;;8140808;28;20279;-61
2022/03/21 09:34:40;;;;;;;16.40;11.55;;;;;;;;;;8139778;29;20028;-61
2022/03/21 09:38:41;;;;;;;16.88;10.70;;;;;;;;;;8143914;28;20206;-61
2022/03/21 09:42:41;;;;;;;16.40;11.45;;;;;;;;;;8143343;28;20027;-61
2022/03/21 09:46:43;;;;;;;17.00;10.97;;;;;;;;;;8145492;28;20035;-61
2022/03/21 09:50:45;;;;;;;15.57;10.75;;;;;;;;;;8144398;29;20277;-61
2022/03/21 09:54:45;;;;;;;13.07;9.75;;;;;;;;;;8145490;28;20016;-61
2022/03/21 09:58:46;;;;;;;13.98;10.35;;;;;;;;;;8143201;28;20046;-61
2022/03/21 10:02:46;;;;;;;16.63;10.77;;;;;;;;;;8144656;28;20035;-61
2022/03/21 10:06:49;;;;;;;13.90;9.70;;;;;;;;;;8143994;28;20460;-62
2022/03/21 10:10:53;;;;;;;12.30;9.20;;;;;;;;;;8143646;28;20027;-61
2022/03/21 10:14:56;;;;;;;17.23;10.27;;;;;;;;;;8144526;29;20426;-61
2022/03/21 10:18:57;;;;;;;16.38;10.43;;;;;;;;;;8142622;28;20035;-61
2022/03/21 10:23:13;;;;;;;16.98;10.48;;;;;;;;;;8143401;29;20027;-61
2022/03/21 10:27:31;;;;;;;14.85;10.15;;;;;;;;;;8144709;29;20126;-61
2022/03/21 10:31:52;;;;;;;16.27;10.05;;;;;;;;;;8145938;28;20130;-61
2022/03/21 10:35:52;;;;;;;14.20;9.45;;;;;;;;;;8139742;29;20039;-61
2022/03/21 10:39:57;;;;;;;15.57;9.23;;;;;;;;;;8143484;29;20023;-61
2022/03/21 10:43:57;;;;;;;14.90;9.45;;;;;;;;;;8143946;29;20016;-62
2022/03/21 10:47:57;;;;;;;13.85;10.52;;;;;;;;;;8144592;28;20039;-61
2022/03/21 10:51:58;;;;;;;14.07;11.27;;;;;;;;;;8137810;29;20043;-61
2022/03/21 10:55:58;;;;;;;17.25;10.85;;;;;;;;;;8139773;28;20038;-61
2022/03/21 11:00:17;;;;;;;16.13;12.02;;;;;;;;;;8139319;29;20106;-61
2022/03/21 11:04:17;;;;;;;17.48;11.32;;;;;;;;;;8140334;29;20524;-61
2022/03/21 11:08:18;;;;;;;18.00;11.18;;;;;;;;;;8141457;28;20086;-61
2022/03/21 11:12:18;;;;;;;15.65;10.88;;;;;;;;;;8138159;28;20027;-61
2022/03/21 11:16:19;;;;;;;17.98;11.45;;;;;;;;;;8140448;28;20047;-61
2022/03/21 11:20:19;;;;;;;17.08;10.90;;;;;;;;;;8139543;28;20027;-61
2022/03/21 11:24:19;;;;;;;17.88;11.25;;;;;;;;;;8146420;28;20034;-61
2022/03/21 11:28:26;;;;;;;13.73;11.03;;;;;;;;;;8144593;29;20436;-61
2022/03/21 11:33:02;;;;;;;16.95;10.90;;;;;;;;;;8142410;28;20086;-62
2022/03/21 11:37:02;;;;;;;16.13;12.13;;;;;;;;;;8113664;29;20042;-61
2022/03/21 11:41:12;;;;;;;16.45;10.95;;;;;;;;;;8124706;29;20027;-61
2022/03/21 11:45:25;;;;;;;17.50;12.50;;;;;;;;;;8144300;28;20030;-62
2022/03/21 11:49:25;;;;;;;15.50;11.70;;;;;;;;;;8134803;28;20027;-61
2022/03/21 11:53:31;;;;;;;16.33;11.45;;;;;;;;;;8143688;29;20508;-61
2022/03/21 11:57:35;;;;;;;18.45;11.68;;;;;;;;;;8144056;29;20027;-61
2022/03/21 12:01:35;;;;;;;17.42;12.32;;;;;;;;;;8144433;28;20464;-61
2022/03/21 12:05:36;;;;;;;16.42;11.32;;;;;;;;;;8141680;29;20297;-61
2022/03/21 12:09:43;;;;;;;21.42;13.38;;;;;;;;;;8147047;28;20520;-61
2022/03/21 12:13:46;;;;;;;19.17;11.88;;;;;;;;;;8147759;29;20026;-61
2022/03/21 12:17:49;;;;;;;14.45;11.88;;;;;;;;;;8147282;28;20070;-61
2022/03/21 12:22:09;;;;;;;17.80;10.97;;;;;;;;;;8147848;29;20254;-61
2022/03/21 12:26:29;;;;;;;19.33;12.50;;;;;;;;;;8147810;29;20027;-61
2022/03/21 12:30:30;;;;;;;21.98;12.68;;;;;;;;;;8147506;28;20039;-61
2022/03/21 12:34:38;;;;;;;19.35;13.05;;;;;;;;;;8144949;28;20059;-61
2022/03/21 12:38:39;;;;;;;21.55;14.25;;;;;;;;;;8147289;29;20049;-61
2022/03/21 12:42:44;;;;;;;21.20;13.63;;;;;;;;;;8150294;29;20605;-62
2022/03/21 12:46:45;;;;;;;25.83;13.27;;;;;;;;;;8148252;28;20506;-61
2022/03/21 12:50:49;;;;;;;21.95;13.95;;;;;;;;;;8143884;29;20460;-61
2022/03/21 12:54:49;;;;;;;18.50;13.55;;;;;;;;;;8147078;29;20732;-61
2022/03/21 12:58:54;;;;;;;18.70;13.93;;;;;;;;;;8146802;28;20035;-61
2022/03/21 13:02:57;;;;;;;20.98;13.85;;;;;;;;;;8146997;28;20042;-61
2022/03/21 13:11:28;;;;;;;24.85;14.10;;;;;;;;;;8144433;28;20105;-61
2022/03/21 13:15:28;;;;;;;16.48;12.77;;;;;;;;;;8143514;28;20067;-61
2022/03/21 13:19:29;;;;;;;17.85;12.48;;;;;;;;;;8145888;29;20035;-61
2022/03/21 13:23:30;;;;;;;18.92;12.07;;;;;;;;;;8147142;29;20035;-61
2022/03/21 13:27:34;;;;;;;19.35;13.35;;;;;;;;;;8145319;29;20261;-61
2022/03/21 13:31:34;;;;;;;17.55;12.52;;;;;;;;;;8147007;28;20597;-61
2022/03/21 13:35:49;;;;;;;16.98;11.85;;;;;;;;;;8146653;29;20026;-61
2022/03/21 13:40:03;;;;;;;16.98;11.75;;;;;;;;;;8146297;29;20134;-61
2022/03/21 13:44:05;;;;;;;18.60;13.57;;;;;;;;;;8150111;28;20028;-61
2022/03/21 13:48:05;;;;;;;20.23;12.65;;;;;;;;;;8144424;28;20428;-61
2022/03/21 13:52:05;;;;;;;17.17;12.23;;;;;;;;;;8144161;29;20026;-61
2022/03/21 13:56:05;;;;;;;17.88;13.32;;;;;;;;;;8140540;28;20027;-61
2022/03/21 14:00:10;;;;;;;19.80;12.88;;;;;;;;;;8143257;28;20023;-61
2022/03/21 14:04:18;;;;;;;17.77;13.38;;;;;;;;;;8143333;28;20023;-61
2022/03/21 14:08:19;;;;;;;18.92;13.00;;;;;;;;;;8141138;29;20364;-61
2022/03/21 14:12:25;;;;;;;17.10;12.00;;;;;;;;;;8142598;28;20027;-61
2022/03/21 14:16:26;;;;;;;19.50;13.65;;;;;;;;;;8143869;28;20130;-61
2022/03/21 14:20:26;;;;;;;18.75;13.90;;;;;;;;;;8142634;29;20532;-61
2022/03/21 14:24:26;;;;;;;20.48;15.23;;;;;;;;;;8143130;28;20557;-61
2022/03/21 14:28:26;;;;;;;20.95;14.95;;;;;;;;;;8145970;28;20036;-61
2022/03/21 14:32:27;;;;;;;21.33;13.90;;;;;;;;;;8142865;28;20278;-61
2022/03/21 14:36:27;;;;;;;21.98;13.88;;;;;;;;;;8143807;28;20461;-61
2022/03/21 14:40:27;;;;;;;17.93;13.87;;;;;;;;;;8142149;28;20105;-61
2022/03/21 14:44:27;;;;;;;21.65;14.65;;;;;;;;;;8145822;29;20422;-61
2022/03/21 14:48:28;;;;;;;19.60;14.02;;;;;;;;;;8143179;28;20038;-61
2022/03/21 14:52:28;;;;;;;24.55;15.27;;;;;;;;;;8145585;28;20024;-61
2022/03/21 14:56:28;;;;;;;21.77;13.98;;;;;;;;;;8146018;28;20119;-61
2022/03/21 15:00:29;;;;;;;24.67;13.68;;;;;;;;;;8149912;28;20042;-61
2022/03/21 15:04:31;;;;;;;20.88;13.32;;;;;;;;;;8148438;29;20438;-61
2022/03/21 15:08:31;;;;;;;17.45;11.70;;;;;;;;;;8149686;28;20877;-61
2022/03/21 15:12:32;;;;;;;18.40;11.37;;;;;;;;;;8147919;28;20027;-61
2022/03/21 15:16:32;;;;;;;20.48;11.38;;;;;;;;;;8147318;28;20807;-61
2022/03/21 15:20:34;;;;;;;13.85;10.63;;;;;;;;;;8148669;28;20027;-61
2022/03/21 15:24:37;;;;;;;16.08;10.57;;;;;;;;;;8148088;29;20038;-61
2022/03/21 15:28:37;;;;;;;;;;;;;;;;;;8150273;29;20027;-61
2022/03/21 15:32:38;;;;;;;14.30;11.02;;;;;;;;;;8144775;28;19919;-61
2022/03/21 15:45:00;;;;;;;17.35;11.32;;;;;;;;;;8151892;28;20028;-61
2022/03/21 15:49:01;;;;;;;16.60;11.15;;;;;;;;;;8147726;28;20573;-61
2022/03/21 15:53:04;;;;;;;20.33;10.90;;;;;;;;;;8149328;29;20023;-61
2022/03/21 15:57:04;;;;;;;16.02;10.15;;;;;;;;;;8146444;28;20035;-61
2022/03/21 16:01:04;;;;;;;17.67;9.03;;;;;;;;;;8147500;28;20040;-61
2022/03/21 16:05:05;;;;;;;12.73;8.32;;;;;;;;;;8148203;29;20275;-61
2022/03/21 16:09:07;;;;;;;13.93;8.63;;;;;;;;;;8144994;28;20069;-61
2022/03/21 16:13:07;;;;;;;11.98;8.13;;;;;;;;;;8141999;28;20109;-61
2022/03/21 16:17:07;;;;;;;14.53;9.03;;;;;;;;;;8148218;28;20146;-61
2022/03/21 16:21:08;;;;;;;23.93;9.90;;;;;;;;;;8145092;29;20290;-61
2022/03/21 16:25:08;;;;;;;15.82;9.15;;;;;;;;;;8147780;28;20297;-61
2022/03/21 16:29:08;;;;;;;15.17;8.67;;;;;;;;;;8145747;28;20033;-61
2022/03/21 16:33:09;;;;;;;16.50;8.88;;;;;;;;;;8147014;28;20169;-61
2022/03/21 16:37:12;;;;;;;15.53;9.37;;;;;;;;;;8146047;28;21234;-61
2022/03/21 16:41:12;;;;;;;15.73;9.73;;;;;;;;;;8144005;29;20634;-61
2022/03/21 16:45:12;;;;;;;20.25;10.65;;;;;;;;;;8147290;28;20038;-61
2022/03/21 16:49:12;;;;;;;18.45;10.55;;;;;;;;;;8145962;28;20575;-61
2022/03/21 16:53:13;;;;;;;21.58;10.90;;;;;;;;;;8147554;28;20146;-61
2022/03/21 16:57:13;;;;;;;17.92;12.13;;;;;;;;;;8146903;28;20462;-61
2022/03/21 17:01:14;;;;;;;24.00;11.82;;;;;;;;;;8146488;28;20551;-61
2022/03/21 17:05:15;;;;;;;20.58;12.52;;;;;;;;;;8141144;28;20102;-61
2022/03/21 17:09:16;;;;;;;22.77;12.38;;;;;;;;;;8140229;28;20404;-61
2022/03/21 17:13:16;;;;;;;23.88;13.75;;;;;;;;;;8140355;29;20034;-61
2022/03/21 17:17:16;;;;;;;21.13;12.77;;;;;;;;;;8142843;28;20496;-61
2022/03/21 17:25:36;;;;;;;20.25;12.93;;;;;;;;;;8141492;29;20423;-61
2022/03/21 17:29:37;;;;;;;19.83;12.50;;;;;;;;;;8142532;28;20043;-61
2022/03/21 17:33:38;;;;;;;19.58;12.98;;;;;;;;;;8144705;28;20514;-61
2022/03/21 17:37:38;;;;;;;20.67;12.43;;;;;;;;;;8145461;29;20030;-61
2022/03/21 17:41:38;;;;;;;19.30;13.20;;;;;;;;;;8142591;28;20835;-61
2022/03/21 17:45:39;;;;;;;26.38;13.02;;;;;;;;;;8143707;28;20048;-61
2022/03/21 17:49:40;;;;;;;17.65;11.60;;;;;;;;;;8142896;29;20786;-61
2022/03/21 17:53:40;;;;;;;24.73;14.10;;;;;;;;;;8146298;29;20192;-61
2022/03/21 17:57:41;;;;;;;21.95;13.30;;;;;;;;;;8140516;29;20622;-60
2022/03/21 18:01:41;;;;;;;19.95;11.80;;;;;;;;;;8140332;28;20039;-60
2022/03/21 18:05:41;;;;;;;19.15;12.45;;;;;;;;;;8139388;28;20059;-60
2022/03/21 18:09:41;;;;;;;21.23;11.55;;;;;;;;;;8140124;29;20031;-60
2022/03/21 18:13:42;;;;;;;17.10;11.35;;;;;;;;;;8142094;28;20023;-61
2022/03/21 18:17:43;;;;;;;18.05;11.30;;;;;;;;;;8142757;28;20078;-60
2022/03/21 18:21:43;;;;;;;19.13;12.23;;;;;;;;;;8142913;29;20098;-60
2022/03/21 18:25:44;;;;;;;18.05;12.15;;;;;;;;;;8142449;29;20505;-60
2022/03/21 18:29:45;;;;;;;16.80;11.45;;;;;;;;;;8144448;28;20019;-60
2022/03/21 18:33:45;;;;;;;21.33;12.30;;;;;;;;;;8150960;28;20036;-61
2022/03/21 18:37:46;;;;;;;19.23;11.50;;;;;;;;;;8151306;28;20035;-60
2022/03/21 18:41:46;;;;;;;21.30;10.97;;;;;;;;;;8149659;28;20319;-60
2022/03/21 18:45:46;;;;;;;22.90;13.13;;;;;;;;;;8149978;28;20353;-60
2022/03/21 18:49:46;;;;;;;18.08;12.00;;;;;;;;;;8148469;28;20042;-61
2022/03/21 18:53:47;;;;;;;18.52;11.68;;;;;;;;;;8149653;28;20033;-60
2022/03/21 18:57:47;;;;;;;19.83;10.97;;;;;;;;;;8150819;29;20113;-60
2022/03/21 19:01:47;;;;;;;21.47;11.17;;;;;;;;;;8150532;28;20269;-60
2022/03/21 19:05:47;;;;;;;23.10;12.00;;;;;;;;;;8148336;29;20279;-60
2022/03/21 19:09:48;;;;;;;19.48;12.05;;;;;;;;;;8150675;28;20029;-61
2022/03/21 19:13:48;;;;;;;22.77;12.15;;;;;;;;;;8149820;28;20053;-60
2022/03/21 19:17:49;;;;;;;17.58;10.98;;;;;;;;;;8146218;28;20035;-60
2022/03/21 19:21:49;;;;;;;20.92;10.77;;;;;;;;;;8148036;29;20023;-60
2022/03/21 19:25:50;;;;;;;16.73;11.23;;;;;;;;;;8149788;29;20042;-60
2022/03/21 19:29:50;;;;;;;16.77;10.85;;;;;;;;;;8147407;29;20317;-60
2022/03/21 19:33:50;;;;;;;15.35;10.50;;;;;;;;;;8149505;28;20039;-60
2022/03/21 19:37:52;;;;;;;18.03;10.90;;;;;;;;;;8148484;29;20023;-60
2022/03/21 19:41:53;;;;;;;19.98;12.00;;;;;;;;;;8143883;28;20401;-60
2022/03/21 19:45:55;;;;;;;16.00;10.00;;;;;;;;;;8144467;28;20122;-60
2022/03/21 19:49:56;;;;;;;14.90;10.50;;;;;;;;;;8143801;29;20519;-60
2022/03/21 19:53:56;;;;;;;19.40;10.48;;;;;;;;;;8144158;28;20120;-60
2022/03/21 19:57:56;;;;;;;18.08;10.88;;;;;;;;;;8143736;28;20517;-60
2022/03/21 20:01:58;;;;;;;18.63;10.75;;;;;;;;;;8141768;28;20074;-60
2022/03/21 20:05:58;;;;;;;18.83;11.00;;;;;;;;;;8144659;29;20035;-60
2022/03/21 20:09:58;;;;;;;19.63;10.40;;;;;;;;;;8143229;28;20034;-60
2022/03/21 20:13:58;;;;;;;16.77;11.18;;;;;;;;;;8144335;28;20535;-60
2022/03/21 20:17:58;;;;;;;22.23;12.27;;;;;;;;;;8143673;28;20524;-60
2022/03/21 20:21:59;;;;;;;28.02;13.40;;;;;;;;;;8142083;29;20399;-60
2022/03/21 20:25:59;;;;;;;28.05;14.88;;;;;;;;;;8144331;28;20179;-60
2022/03/21 20:30:00;;;;;;;27.55;14.40;;;;;;;;;;8144069;29;20023;-60
2022/03/21 20:34:01;;;;;;;25.13;14.77;;;;;;;;;;8143767;28;20090;-60
2022/03/21 20:38:01;;;;;;;21.27;13.73;;;;;;;;;;8142730;29;20792;-60
2022/03/21 20:42:04;;;;;;;20.85;12.27;;;;;;;;;;8141139;29;20035;-60
2022/03/21 20:46:04;;;;;;;18.80;11.60;;;;;;;;;;8136797;28;20043;-60
2022/03/21 20:50:08;;;;;;;19.38;10.88;;;;;;;;;;8140764;28;20034;-60
2022/03/21 20:54:08;;;;;;;17.60;11.43;;;;;;;;;;8139848;28;20338;-60
2022/03/21 20:58:10;;;;;;;15.98;10.23;;;;;;;;;;8140396;28;20365;-60
2022/03/21 21:02:10;;;;;;;13.43;9.38;;;;;;;;;;8141705;28;20031;-60
2022/03/21 21:06:11;;;;;;;16.15;9.80;;;;;;;;;;8141010;28;20042;-60
2022/03/21 21:14:30;;;;;;;21.27;12.23;;;;;;;;;;8143781;29;20043;-60
2022/03/21 21:18:30;;;;;;;22.58;14.60;;;;;;;;;;8140767;28;20062;-60
2022/03/21 21:22:32;;;;;;;17.05;12.30;;;;;;;;;;8141874;28;20031;-60
2022/03/21 21:26:32;;;;;;;16.67;12.27;;;;;;;;;;8140166;28;20772;-60
2022/03/21 21:30:33;;;;;;;18.85;11.75;;;;;;;;;;8139583;28;20217;-60
2022/03/21 21:34:34;;;;;;;16.98;11.15;;;;;;;;;;8142534;29;20088;-60
2022/03/21 21:38:34;;;;;;;17.20;10.93;;;;;;;;;;8142604;29;20066;-60
2022/03/21 21:42:34;;;;;;;18.27;11.15;;;;;;;;;;8135879;28;20081;-60
2022/03/21 21:46:35;;;;;;;17.05;9.65;;;;;;;;;;8140082;28;20039;-60
2022/03/21 21:50:35;;;;;;;15.27;9.85;;;;;;;;;;8137943;28;20034;-60
2022/03/21 21:54:35;;;;;;;18.75;9.27;;;;;;;;;;8140842;29;20031;-60
2022/03/21 21:58:35;;;;;;;15.70;9.52;;;;;;;;;;8142746;28;20012;-60
2022/03/21 22:02:36;;;;;;;13.25;9.25;;;;;;;;;;8138985;28;20038;-60
2022/03/21 22:06:36;;;;;;;13.73;8.52;;;;;;;;;;8140960;29;20031;-60
2022/03/21 22:10:36;;;;;;;15.35;9.68;;;;;;;;;;8139285;28;20528;-60
2022/03/21 22:14:37;;;;;;;14.82;9.40;;;;;;;;;;8142488;29;20039;-60
2022/03/21 22:18:37;;;;;;;15.88;8.95;;;;;;;;;;8138649;28;20051;-60
2022/03/21 22:22:37;;;;;;;14.40;9.02;;;;;;;;;;8141952;29;20837;-60
2022/03/21 22:26:38;;;;;;;16.10;9.20;;;;;;;;;;8138503;28;20043;-60
2022/03/21 22:30:38;;;;;;;14.50;8.82;;;;;;;;;;8143871;28;20792;-60
2022/03/21 22:34:38;;;;;;;14.68;8.80;;;;;;;;;;8138135;29;20422;-60
2022/03/21 22:38:38;;;;;;;15.35;8.57;;;;;;;;;;8140821;28;20038;-60
2022/03/21 22:47:12;;;;;;;13.48;8.55;;;;;;;;;;8141852;28;20683;-60
2022/03/21 22:51:13;;;;;;;12.98;7.85;;;;;;;;;;8143513;29;20050;-60
2022/03/21 22:55:13;;;;;;;11.55;8.25;;;;;;;;;;8144798;29;20313;-60
2022/03/21 22:59:13;;;;;;;12.40;7.70;;;;;;;;;;8143360;28;20233;-60
2022/03/21 23:03:14;;;;;;;11.25;7.95;;;;;;;;;;8143530;28;20612;-60
2022/03/21 23:07:14;;;;;;;13.00;8.57;;;;;;;;;;8143331;28;20058;-60
2022/03/21 23:11:15;;;;;;;14.48;8.48;;;;;;;;;;8141917;28;21138;-60
2022/03/21 23:15:17;;;;;;;12.75;8.52;;;;;;;;;;8143235;28;20023;-60
2022/03/21 23:19:17;;;;;;;13.90;8.85;;;;;;;;;;8148156;28;20600;-60
2022/03/21 23:23:20;;;;;;;15.02;9.32;;;;;;;;;;8146945;29;20043;-60
2022/03/21 23:27:20;;;;;;;15.88;9.98;;;;;;;;;;8149353;28;20031;-60
2022/03/21 23:31:20;;;;;;;17.52;10.68;;;;;;;;;;8150077;28;20441;-60
2022/03/21 23:35:20;;;;;;;16.27;11.00;;;;;;;;;;8148843;28;20502;-60
2022/03/21 23:39:21;;;;;;;15.00;10.20;;;;;;;;;;8147902;28;20729;-60
2022/03/21 23:43:21;;;;;;;17.00;10.80;;;;;;;;;;8149466;29;20305;-60
2022/03/21 23:47:21;;;;;;;21.23;10.90;;;;;;;;;;8147825;28;20296;-60
2022/03/21 23:51:21;;;;;;;18.73;9.90;;;;;;;;;;8145120;29;20139;-60
2022/03/21 23:55:21;;;;;;;15.77;9.95;;;;;;;;;;8148557;29;20048;-60
2022/03/21 23:59:21;;;;;;;13.60;8.98;;;;;;;;;;8147302;28;20015;-60
